sensor_id;sensor_type;location;lat;lon;timestamp;pressure;altitude;pressure_sealevel;temperature;humidity
9764;BME280;4921;43.214;27.936;2024-01-10T00:01:45;102413.25;;;-4.24;51.52
9764;BME280;4921;43.214;27.936;2024-01-10T00:04:11;102405.19;;;-4.31;51.90
9764;BME280;4921;43.214;27.936;2024-01-10T00:06:36;102412.44;;;-4.25;51.68
9764;BME280;4921;43.214;27.936;2024-01-10T00:09:02;102404.38;;;-4.25;51.30
9764;BME280;4921;43.214;27.936;2024-01-10T00:11:27;102427.28;;;-4.16;50.56
9764;BME280;4921;43.214;27.936;2024-01-10T00:13:53;102411.59;;;-4.25;50.98
9764;BME280;4921;43.214;27.936;2024-01-10T00:16:25;102421.31;;;-4.31;50.57
9764;BME280;4921;43.214;27.936;2024-01-10T00:18:51;102415.75;;;-4.36;51.08
9764;BME280;4921;43.214;27.936;2024-01-10T00:21:16;102416.97;;;-4.25;51.20
9764;BME280;4921;43.214;27.936;2024-01-10T00:23:42;102427.50;;;-4.11;49.64
9764;BME280;4921;43.214;27.936;2024-01-10T00:26:07;102431.03;;;-4.17;50.59
9764;BME280;4921;43.214;27.936;2024-01-10T00:28:33;102441.34;;;-4.14;49.75
9764;BME280;4921;43.214;27.936;2024-01-10T00:30:58;102438.47;;;-4.19;50.99
9764;BME280;4921;43.214;27.936;2024-01-10T00:33:24;102454.41;;;-4.24;50.75
9764;BME280;4921;43.214;27.936;2024-01-10T00:35:49;102446.09;;;-4.16;50.61
9764;BME280;4921;43.214;27.936;2024-01-10T00:38:15;102461.66;;;-4.18;49.80
9764;BME280;4921;43.214;27.936;2024-01-10T00:40:40;102444.28;;;-4.22;50.15
9764;BME280;4921;43.214;27.936;2024-01-10T00:43:06;102452.78;;;-4.25;50.29
9764;BME280;4921;43.214;27.936;2024-01-10T00:45:31;102436.88;;;-4.46;50.45
9764;BME280;4921;43.214;27.936;2024-01-10T00:47:57;102458.56;;;-4.21;52.08
9764;BME280;4921;43.214;27.936;2024-01-10T00:50:23;102457.91;;;-4.30;50.98
9764;BME280;4921;43.214;27.936;2024-01-10T00:52:48;102440.56;;;-4.47;53.15
9764;BME280;4921;43.214;27.936;2024-01-10T00:55:14;102456.69;;;-4.40;51.40
9764;BME280;4921;43.214;27.936;2024-01-10T00:57:39;102460.44;;;-4.28;51.24
9764;BME280;4921;43.214;27.936;2024-01-10T01:00:09;102445.53;;;-4.37;49.95
9764;BME280;4921;43.214;27.936;2024-01-10T01:02:36;102448.44;;;-4.52;51.41
9764;BME280;4921;43.214;27.936;2024-01-10T01:05:02;102450.50;;;-4.34;51.73
9764;BME280;4921;43.214;27.936;2024-01-10T01:07:28;102447.19;;;-4.36;50.29
9764;BME280;4921;43.214;27.936;2024-01-10T01:09:53;102445.34;;;-4.36;50.19
9764;BME280;4921;43.214;27.936;2024-01-10T01:12:19;102448.84;;;-4.48;51.44
9764;BME280;4921;43.214;27.936;2024-01-10T01:14:45;102450.69;;;-4.49;52.88
9764;BME280;4921;43.214;27.936;2024-01-10T01:17:10;102451.13;;;-4.39;52.61
9764;BME280;4921;43.214;27.936;2024-01-10T01:19:36;102442.63;;;-4.29;50.88
9764;BME280;4921;43.214;27.936;2024-01-10T01:22:02;102448.63;;;-4.47;52.01
9764;BME280;4921;43.214;27.936;2024-01-10T01:24:27;102429.63;;;-4.65;52.79
9764;BME280;4921;43.214;27.936;2024-01-10T01:26:53;102441.00;;;-4.57;51.72
9764;BME280;4921;43.214;27.936;2024-01-10T01:29:19;102448.00;;;-4.49;52.27
9764;BME280;4921;43.214;27.936;2024-01-10T01:31:45;102449.25;;;-4.65;52.66
9764;BME280;4921;43.214;27.936;2024-01-10T01:34:10;102454.63;;;-4.45;52.95
9764;BME280;4921;43.214;27.936;2024-01-10T01:36:36;102436.03;;;-4.40;50.56
9764;BME280;4921;43.214;27.936;2024-01-10T01:39:02;102419.50;;;-4.63;52.13
9764;BME280;4921;43.214;27.936;2024-01-10T01:41:28;102438.28;;;-4.43;50.70
9764;BME280;4921;43.214;27.936;2024-01-10T01:43:54;102423.00;;;-4.56;51.53
9764;BME280;4921;43.214;27.936;2024-01-10T01:46:19;102431.28;;;-4.44;50.94
9764;BME280;4921;43.214;27.936;2024-01-10T01:48:45;102425.28;;;-4.53;51.76
9764;BME280;4921;43.214;27.936;2024-01-10T01:51:12;102432.75;;;-4.81;52.79
9764;BME280;4921;43.214;27.936;2024-01-10T01:53:39;102416.78;;;-4.83;51.88
9764;BME280;4921;43.214;27.936;2024-01-10T01:56:07;102423.22;;;-4.64;52.09
9764;BME280;4921;43.214;27.936;2024-01-10T01:58:33;102430.63;;;-4.40;50.97
9764;BME280;4921;43.214;27.936;2024-01-10T02:00:59;102420.72;;;-4.53;50.77
9764;BME280;4921;43.214;27.936;2024-01-10T02:03:26;102421.34;;;-4.51;50.51
9764;BME280;4921;43.214;27.936;2024-01-10T02:05:52;102418.63;;;-4.44;52.16
9764;BME280;4921;43.214;27.936;2024-01-10T02:08:17;102416.78;;;-4.37;51.05
9764;BME280;4921;43.214;27.936;2024-01-10T02:10:43;102412.66;;;-4.53;51.03
9764;BME280;4921;43.214;27.936;2024-01-10T02:13:08;102418.66;;;-4.70;52.17
9764;BME280;4921;43.214;27.936;2024-01-10T02:15:37;102407.09;;;-4.77;52.34
9764;BME280;4921;43.214;27.936;2024-01-10T02:18:03;102387.06;;;-4.81;53.05
9764;BME280;4921;43.214;27.936;2024-01-10T02:20:31;102401.28;;;-4.61;51.49
9764;BME280;4921;43.214;27.936;2024-01-10T02:22:59;102386.03;;;-4.80;51.78
9764;BME280;4921;43.214;27.936;2024-01-10T02:25:24;102390.78;;;-4.82;52.62
9764;BME280;4921;43.214;27.936;2024-01-10T02:27:50;102402.97;;;-4.80;52.02
9764;BME280;4921;43.214;27.936;2024-01-10T02:30:15;102409.16;;;-4.53;51.88
9764;BME280;4921;43.214;27.936;2024-01-10T02:32:41;102398.00;;;-4.63;52.45
9764;BME280;4921;43.214;27.936;2024-01-10T02:35:07;102412.06;;;-4.61;51.89
9764;BME280;4921;43.214;27.936;2024-01-10T02:37:33;102394.50;;;-4.83;52.35
9764;BME280;4921;43.214;27.936;2024-01-10T02:39:59;102404.59;;;-4.98;54.75
9764;BME280;4921;43.214;27.936;2024-01-10T02:42:25;102395.31;;;-4.96;53.78
9764;BME280;4921;43.214;27.936;2024-01-10T02:44:51;102398.63;;;-4.87;53.57
9764;BME280;4921;43.214;27.936;2024-01-10T02:47:17;102394.88;;;-4.86;53.46
9764;BME280;4921;43.214;27.936;2024-01-10T02:49:42;102394.47;;;-4.96;52.85
9764;BME280;4921;43.214;27.936;2024-01-10T02:52:08;102386.84;;;-4.99;53.81
9764;BME280;4921;43.214;27.936;2024-01-10T02:54:33;102392.84;;;-4.78;53.51
9764;BME280;4921;43.214;27.936;2024-01-10T02:56:59;102400.91;;;-4.71;53.53
9764;BME280;4921;43.214;27.936;2024-01-10T02:59:24;102391.38;;;-4.93;53.25
9764;BME280;4921;43.214;27.936;2024-01-10T03:01:50;102408.13;;;-5.04;54.20
9764;BME280;4921;43.214;27.936;2024-01-10T03:04:15;102403.78;;;-4.92;52.42
9764;BME280;4921;43.214;27.936;2024-01-10T03:06:41;102405.22;;;-4.96;54.21
9764;BME280;4921;43.214;27.936;2024-01-10T03:09:06;102414.31;;;-5.04;54.65
9764;BME280;4921;43.214;27.936;2024-01-10T03:11:32;102399.66;;;-5.01;52.70
9764;BME280;4921;43.214;27.936;2024-01-10T03:14:02;102410.00;;;-4.79;53.95
9764;BME280;4921;43.214;27.936;2024-01-10T03:16:29;102394.50;;;-4.77;53.35
9764;BME280;4921;43.214;27.936;2024-01-10T03:18:55;102392.00;;;-4.78;52.11
9764;BME280;4921;43.214;27.936;2024-01-10T03:21:21;102404.59;;;-4.72;53.27
9764;BME280;4921;43.214;27.936;2024-01-10T03:23:57;102389.72;;;-4.88;52.84
9764;BME280;4921;43.214;27.936;2024-01-10T03:26:23;102395.09;;;-5.07;54.79
9764;BME280;4921;43.214;27.936;2024-01-10T03:28:49;102383.13;;;-5.11;54.58
9764;BME280;4921;43.214;27.936;2024-01-10T03:31:15;102392.44;;;-5.01;53.61
9764;BME280;4921;43.214;27.936;2024-01-10T03:33:41;102375.88;;;-4.91;53.88
9764;BME280;4921;43.214;27.936;2024-01-10T03:36:11;102391.78;;;-4.96;53.45
9764;BME280;4921;43.214;27.936;2024-01-10T03:38:36;102396.16;;;-4.89;53.87
9764;BME280;4921;43.214;27.936;2024-01-10T03:41:02;102396.53;;;-4.72;53.63
9764;BME280;4921;43.214;27.936;2024-01-10T03:43:27;102388.94;;;-4.88;53.40
9764;BME280;4921;43.214;27.936;2024-01-10T03:45:53;102397.81;;;-4.75;53.63
9764;BME280;4921;43.214;27.936;2024-01-10T03:48:19;102394.50;;;-4.83;54.93
9764;BME280;4921;43.214;27.936;2024-01-10T03:50:44;102388.91;;;-4.82;54.70
9764;BME280;4921;43.214;27.936;2024-01-10T03:53:10;102398.41;;;-4.60;53.76
9764;BME280;4921;43.214;27.936;2024-01-10T03:55:35;102396.34;;;-4.58;54.13
9764;BME280;4921;43.214;27.936;2024-01-10T03:58:01;102400.50;;;-4.75;54.47
9764;BME280;4921;43.214;27.936;2024-01-10T04:00:26;102400.06;;;-4.78;54.14
9764;BME280;4921;43.214;27.936;2024-01-10T04:02:52;102390.78;;;-4.82;54.30
9764;BME280;4921;43.214;27.936;2024-01-10T04:05:18;102412.91;;;-4.67;53.40
9764;BME280;4921;43.214;27.936;2024-01-10T04:07:45;102403.56;;;-4.65;54.51
9764;BME280;4921;43.214;27.936;2024-01-10T04:10:12;102404.00;;;-4.74;54.35
9764;BME280;4921;43.214;27.936;2024-01-10T04:12:43;102406.28;;;-4.71;55.27
9764;BME280;4921;43.214;27.936;2024-01-10T04:15:09;102406.88;;;-4.56;54.56
9764;BME280;4921;43.214;27.936;2024-01-10T04:17:34;102407.13;;;-4.71;55.02
9764;BME280;4921;43.214;27.936;2024-01-10T04:20:00;102391.41;;;-4.67;53.94
9764;BME280;4921;43.214;27.936;2024-01-10T04:22:25;102413.28;;;-4.57;54.88
9764;BME280;4921;43.214;27.936;2024-01-10T04:24:51;102413.06;;;-4.49;54.26
9764;BME280;4921;43.214;27.936;2024-01-10T04:27:17;102408.75;;;-4.57;53.48
9764;BME280;4921;43.214;27.936;2024-01-10T04:29:44;102416.19;;;-4.52;54.71
9764;BME280;4921;43.214;27.936;2024-01-10T04:32:09;102417.84;;;-4.58;53.71
9764;BME280;4921;43.214;27.936;2024-01-10T04:34:35;102414.34;;;-4.71;55.61
9764;BME280;4921;43.214;27.936;2024-01-10T04:37:00;102415.16;;;-4.64;54.47
9764;BME280;4921;43.214;27.936;2024-01-10T04:39:26;102421.16;;;-4.56;54.37
9764;BME280;4921;43.214;27.936;2024-01-10T04:41:51;102421.97;;;-4.55;55.20
9764;BME280;4921;43.214;27.936;2024-01-10T04:44:17;102408.75;;;-4.76;55.83
9764;BME280;4921;43.214;27.936;2024-01-10T04:46:42;102419.28;;;-4.55;55.58
9764;BME280;4921;43.214;27.936;2024-01-10T04:49:08;102419.50;;;-4.50;55.50
9764;BME280;4921;43.214;27.936;2024-01-10T04:51:34;102427.56;;;-4.63;55.56
9764;BME280;4921;43.214;27.936;2024-01-10T04:53:59;102410.19;;;-4.61;55.95
9764;BME280;4921;43.214;27.936;2024-01-10T04:56:25;102416.19;;;-4.65;55.69
9764;BME280;4921;43.214;27.936;2024-01-10T04:58:51;102430.66;;;-4.73;56.42
9764;BME280;4921;43.214;27.936;2024-01-10T05:01:17;102429.41;;;-4.70;54.66
9764;BME280;4921;43.214;27.936;2024-01-10T05:03:43;102443.47;;;-4.62;54.43
9764;BME280;4921;43.214;27.936;2024-01-10T05:06:08;102445.53;;;-4.51;54.57
9764;BME280;4921;43.214;27.936;2024-01-10T05:08:34;102446.78;;;-4.46;54.94
9764;BME280;4921;43.214;27.936;2024-01-10T05:10:59;102441.81;;;-4.56;54.96
9764;BME280;4921;43.214;27.936;2024-01-10T05:13:25;102448.25;;;-4.57;54.50
9764;BME280;4921;43.214;27.936;2024-01-10T05:15:50;102454.84;;;-4.46;53.54
9764;BME280;4921;43.214;27.936;2024-01-10T05:18:18;102461.47;;;-4.49;54.11
9764;BME280;4921;43.214;27.936;2024-01-10T05:20:44;102464.16;;;-4.42;54.86
9764;BME280;4921;43.214;27.936;2024-01-10T05:23:10;102466.63;;;-4.54;53.73
9764;BME280;4921;43.214;27.936;2024-01-10T05:25:35;102461.88;;;-4.45;53.32
9764;BME280;4921;43.214;27.936;2024-01-10T05:28:01;102458.78;;;-4.36;53.27
9764;BME280;4921;43.214;27.936;2024-01-10T05:30:27;102462.28;;;-4.42;52.98
9764;BME280;4921;43.214;27.936;2024-01-10T05:32:52;102463.50;;;-4.31;54.07
9764;BME280;4921;43.214;27.936;2024-01-10T05:35:17;102471.56;;;-4.31;52.67
9764;BME280;4921;43.214;27.936;2024-01-10T05:37:43;102459.81;;;-4.30;53.02
9764;BME280;4921;43.214;27.936;2024-01-10T05:40:09;102469.94;;;-4.32;52.05
9764;BME280;4921;43.214;27.936;2024-01-10T05:42:35;102470.56;;;-4.30;52.94
9764;BME280;4921;43.214;27.936;2024-01-10T05:45:00;102468.09;;;-4.32;51.70
9764;BME280;4921;43.214;27.936;2024-01-10T05:47:27;102469.53;;;-4.36;52.79
9764;BME280;4921;43.214;27.936;2024-01-10T05:49:53;102473.66;;;-4.27;51.58
9764;BME280;4921;43.214;27.936;2024-01-10T05:52:19;102477.38;;;-4.21;50.01
9764;BME280;4921;43.214;27.936;2024-01-10T05:54:45;102468.91;;;-4.25;50.36
9764;BME280;4921;43.214;27.936;2024-01-10T05:57:13;102474.06;;;-4.30;52.20
9764;BME280;4921;43.214;27.936;2024-01-10T05:59:39;102472.00;;;-4.28;51.32
9764;BME280;4921;43.214;27.936;2024-01-10T06:02:04;102469.91;;;-4.19;49.18
9764;BME280;4921;43.214;27.936;2024-01-10T06:04:30;102488.34;;;-4.16;49.43
9764;BME280;4921;43.214;27.936;2024-01-10T06:07:00;102485.84;;;-4.11;49.22
9764;BME280;4921;43.214;27.936;2024-01-10T06:09:26;102490.19;;;-4.17;49.43
9764;BME280;4921;43.214;27.936;2024-01-10T06:11:51;102490.38;;;-4.05;49.03
9764;BME280;4921;43.214;27.936;2024-01-10T06:14:17;102484.97;;;-3.92;49.05
9764;BME280;4921;43.214;27.936;2024-01-10T06:16:43;102482.72;;;-4.02;48.98
9764;BME280;4921;43.214;27.936;2024-01-10T06:19:10;102493.47;;;-3.89;48.31
9764;BME280;4921;43.214;27.936;2024-01-10T06:21:37;102496.78;;;-3.87;46.74
9764;BME280;4921;43.214;27.936;2024-01-10T06:24:03;102504.59;;;-3.79;48.41
9764;BME280;4921;43.214;27.936;2024-01-10T06:26:28;102511.84;;;-3.73;48.51
9764;BME280;4921;43.214;27.936;2024-01-10T06:28:54;102509.97;;;-3.66;47.12
9764;BME280;4921;43.214;27.936;2024-01-10T06:31:19;102511.19;;;-3.68;46.93
9764;BME280;4921;43.214;27.936;2024-01-10T06:33:45;102506.66;;;-3.68;46.33
9764;BME280;4921;43.214;27.936;2024-01-10T06:36:11;102509.53;;;-3.63;47.64
9764;BME280;4921;43.214;27.936;2024-01-10T06:38:38;102519.44;;;-3.50;46.51
9764;BME280;4921;43.214;27.936;2024-01-10T06:41:11;102517.59;;;-3.63;47.42
9764;BME280;4921;43.214;27.936;2024-01-10T06:43:39;102524.59;;;-3.49;47.19
9764;BME280;4921;43.214;27.936;2024-01-10T06:46:06;102524.75;;;-3.37;46.20
9764;BME280;4921;43.214;27.936;2024-01-10T06:48:31;102511.28;;;-3.30;44.54
9764;BME280;4921;43.214;27.936;2024-01-10T06:50:57;102525.09;;;-3.14;44.89
9764;BME280;4921;43.214;27.936;2024-01-10T06:53:23;102536.50;;;-3.18;44.03
9764;BME280;4921;43.214;27.936;2024-01-10T06:55:48;102536.91;;;-3.15;44.76
9764;BME280;4921;43.214;27.936;2024-01-10T06:58:14;102525.47;;;-3.04;42.73
9764;BME280;4921;43.214;27.936;2024-01-10T07:00:39;102537.22;;;-2.98;41.85
9764;BME280;4921;43.214;27.936;2024-01-10T07:03:05;102534.94;;;-2.95;41.67
9764;BME280;4921;43.214;27.936;2024-01-10T07:05:31;102537.00;;;-2.90;42.72
9764;BME280;4921;43.214;27.936;2024-01-10T07:08:00;102530.72;;;-2.78;41.83
9764;BME280;4921;43.214;27.936;2024-01-10T07:10:28;102523.41;;;-2.71;42.07
9764;BME280;4921;43.214;27.936;2024-01-10T07:12:54;102525.94;;;-2.82;43.24
9764;BME280;4921;43.214;27.936;2024-01-10T07:15:21;102533.75;;;-2.68;42.17
9764;BME280;4921;43.214;27.936;2024-01-10T07:17:46;102538.44;;;-2.57;43.30
9764;BME280;4921;43.214;27.936;2024-01-10T07:20:12;102529.53;;;-2.57;42.15
9764;BME280;4921;43.214;27.936;2024-01-10T07:22:38;102542.16;;;-2.51;42.13
9764;BME280;4921;43.214;27.936;2024-01-10T07:25:10;102514.78;;;-2.55;42.50
9764;BME280;4921;43.214;27.936;2024-01-10T07:27:40;102530.56;;;-2.27;41.19
9764;BME280;4921;43.214;27.936;2024-01-10T07:30:06;102536.66;;;-2.38;41.43
9764;BME280;4921;43.214;27.936;2024-01-10T07:32:45;102539.09;;;-2.30;43.06
9764;BME280;4921;43.214;27.936;2024-01-10T07:35:12;102532.16;;;-2.19;42.88
9764;BME280;4921;43.214;27.936;2024-01-10T07:37:40;102539.19;;;-1.94;42.35
9764;BME280;4921;43.214;27.936;2024-01-10T07:40:06;102534.53;;;-1.87;42.54
9764;BME280;4921;43.214;27.936;2024-01-10T07:42:33;102549.25;;;-1.65;42.34
9764;BME280;4921;43.214;27.936;2024-01-10T07:45:00;102530.97;;;-1.63;42.98
9764;BME280;4921;43.214;27.936;2024-01-10T07:47:25;102546.13;;;-1.44;41.15
9764;BME280;4921;43.214;27.936;2024-01-10T07:49:51;102539.69;;;-1.43;42.75
9764;BME280;4921;43.214;27.936;2024-01-10T07:52:17;102553.34;;;-1.38;42.38
9764;BME280;4921;43.214;27.936;2024-01-10T07:54:42;102549.28;;;-1.29;42.25
9764;BME280;4921;43.214;27.936;2024-01-10T07:57:08;102548.69;;;-1.13;41.88
9764;BME280;4921;43.214;27.936;2024-01-10T07:59:33;102549.72;;;-0.95;42.22
9764;BME280;4921;43.214;27.936;2024-01-10T08:02:00;102546.59;;;-0.81;40.71
9764;BME280;4921;43.214;27.936;2024-01-10T08:04:29;102549.88;;;-0.79;41.11
9764;BME280;4921;43.214;27.936;2024-01-10T08:06:54;102553.00;;;-0.64;40.43
9764;BME280;4921;43.214;27.936;2024-01-10T08:09:21;102546.59;;;-0.51;40.36
9764;BME280;4921;43.214;27.936;2024-01-10T08:11:47;102553.09;;;-0.41;38.45
9764;BME280;4921;43.214;27.936;2024-01-10T08:14:14;102553.47;;;-0.26;39.20
9764;BME280;4921;43.214;27.936;2024-01-10T08:16:40;102557.72;;;-0.18;39.26
9764;BME280;4921;43.214;27.936;2024-01-10T08:19:06;102563.25;;;-0.02;40.46
9764;BME280;4921;43.214;27.936;2024-01-10T08:21:32;102550.47;;;0.17;39.77
9764;BME280;4921;43.214;27.936;2024-01-10T08:23:58;102549.97;;;0.43;38.60
9764;BME280;4921;43.214;27.936;2024-01-10T08:26:23;102551.88;;;0.54;38.56
9764;BME280;4921;43.214;27.936;2024-01-10T08:28:49;102570.22;;;0.75;39.02
9764;BME280;4921;43.214;27.936;2024-01-10T08:31:17;102569.72;;;0.78;38.20
9764;BME280;4921;43.214;27.936;2024-01-10T08:33:43;102566.88;;;0.96;37.47
9764;BME280;4921;43.214;27.936;2024-01-10T08:36:08;102558.94;;;0.95;37.95
9764;BME280;4921;43.214;27.936;2024-01-10T08:38:35;102563.06;;;0.97;37.04
9764;BME280;4921;43.214;27.936;2024-01-10T08:41:01;102557.66;;;0.97;37.91
9764;BME280;4921;43.214;27.936;2024-01-10T08:43:27;102563.94;;;1.26;37.46
9764;BME280;4921;43.214;27.936;2024-01-10T08:45:52;102576.22;;;1.45;37.84
9764;BME280;4921;43.214;27.936;2024-01-10T08:48:18;102551.22;;;1.43;36.57
9764;BME280;4921;43.214;27.936;2024-01-10T08:50:43;102564.88;;;1.48;37.19
9764;BME280;4921;43.214;27.936;2024-01-10T08:53:10;102540.97;;;1.62;37.10
9764;BME280;4921;43.214;27.936;2024-01-10T08:55:36;102560.16;;;1.88;36.23
9764;BME280;4921;43.214;27.936;2024-01-10T08:58:03;102553.84;;;1.99;35.76
9764;BME280;4921;43.214;27.936;2024-01-10T09:00:29;102560.97;;;2.22;37.11
9764;BME280;4921;43.214;27.936;2024-01-10T09:02:55;102551.09;;;2.16;36.31
9764;BME280;4921;43.214;27.936;2024-01-10T09:05:20;102553.16;;;2.42;36.48
9764;BME280;4921;43.214;27.936;2024-01-10T09:07:47;102541.47;;;2.63;34.54
9764;BME280;4921;43.214;27.936;2024-01-10T09:10:13;102547.03;;;2.73;34.12
9764;BME280;4921;43.214;27.936;2024-01-10T09:12:38;102547.41;;;2.60;34.53
9764;BME280;4921;43.214;27.936;2024-01-10T09:15:04;102529.75;;;2.63;34.22
9764;BME280;4921;43.214;27.936;2024-01-10T09:17:30;102545.25;;;2.62;35.59
9764;BME280;4921;43.214;27.936;2024-01-10T09:19:56;102535.84;;;2.70;35.15
9764;BME280;4921;43.214;27.936;2024-01-10T09:22:21;102527.91;;;2.90;35.15
9764;BME280;4921;43.214;27.936;2024-01-10T09:24:47;102543.50;;;2.94;35.50
9764;BME280;4921;43.214;27.936;2024-01-10T09:27:12;102531.09;;;3.03;35.58
9764;BME280;4921;43.214;27.936;2024-01-10T09:29:38;102541.09;;;3.19;35.39
9764;BME280;4921;43.214;27.936;2024-01-10T09:32:03;102526.03;;;3.12;34.74
9764;BME280;4921;43.214;27.936;2024-01-10T09:34:29;102522.03;;;3.19;34.53
9764;BME280;4921;43.214;27.936;2024-01-10T09:36:55;102517.13;;;2.95;35.09
9764;BME280;4921;43.214;27.936;2024-01-10T09:39:20;102511.63;;;3.16;35.41
9764;BME280;4921;43.214;27.936;2024-01-10T09:41:47;102505.63;;;3.41;35.89
9764;BME280;4921;43.214;27.936;2024-01-10T09:44:15;102501.97;;;3.57;34.63
9764;BME280;4921;43.214;27.936;2024-01-10T09:46:46;102504.63;;;3.79;34.78
9764;BME280;4921;43.214;27.936;2024-01-10T09:49:13;102495.41;;;3.90;35.25
9764;BME280;4921;43.214;27.936;2024-01-10T09:51:39;102495.56;;;4.10;35.92
9764;BME280;4921;43.214;27.936;2024-01-10T09:54:05;102487.00;;;4.33;35.76
9764;BME280;4921;43.214;27.936;2024-01-10T09:56:32;102490.66;;;4.59;34.65
9764;BME280;4921;43.214;27.936;2024-01-10T09:59:01;102486.34;;;4.63;34.14
9764;BME280;4921;43.214;27.936;2024-01-10T10:01:30;102482.19;;;4.55;34.89
9764;BME280;4921;43.214;27.936;2024-01-10T10:03:57;102452.53;;;4.69;35.55
9764;BME280;4921;43.214;27.936;2024-01-10T10:06:22;102471.19;;;4.97;35.13
9764;BME280;4921;43.214;27.936;2024-01-10T10:08:48;102471.47;;;5.05;34.85
9764;BME280;4921;43.214;27.936;2024-01-10T10:11:13;102458.88;;;4.94;34.50
9764;BME280;4921;43.214;27.936;2024-01-10T10:13:40;102451.75;;;4.83;35.10
9764;BME280;4921;43.214;27.936;2024-01-10T10:16:08;102467.31;;;4.83;35.64
9764;BME280;4921;43.214;27.936;2024-01-10T10:18:35;102457.72;;;4.70;34.60
9764;BME280;4921;43.214;27.936;2024-01-10T10:21:11;102445.16;;;4.74;34.92
9764;BME280;4921;43.214;27.936;2024-01-10T10:23:38;102448.31;;;4.46;34.83
9764;BME280;4921;43.214;27.936;2024-01-10T10:26:17;102442.63;;;4.47;34.36
9764;BME280;4921;43.214;27.936;2024-01-10T10:28:50;102432.94;;;4.25;34.31
9764;BME280;4921;43.214;27.936;2024-01-10T10:31:18;102425.28;;;4.12;34.96
9764;BME280;4921;43.214;27.936;2024-01-10T10:33:49;102421.53;;;4.23;35.90
9764;BME280;4921;43.214;27.936;2024-01-10T10:36:20;102412.69;;;4.11;36.89
9764;BME280;4921;43.214;27.936;2024-01-10T10:38:47;102419.84;;;4.22;36.18
9764;BME280;4921;43.214;27.936;2024-01-10T10:41:16;102410.06;;;3.79;36.91
9764;BME280;4921;43.214;27.936;2024-01-10T10:43:43;102399.81;;;3.55;37.19
9764;BME280;4921;43.214;27.936;2024-01-10T10:46:10;102397.34;;;3.53;37.55
9764;BME280;4921;43.214;27.936;2024-01-10T10:48:39;102390.75;;;3.81;38.18
9764;BME280;4921;43.214;27.936;2024-01-10T10:51:09;102393.00;;;3.52;36.85
9764;BME280;4921;43.214;27.936;2024-01-10T10:53:36;102385.09;;;3.51;36.46
9764;BME280;4921;43.214;27.936;2024-01-10T10:56:05;102385.34;;;3.49;36.37
9764;BME280;4921;43.214;27.936;2024-01-10T10:58:36;102376.50;;;3.32;36.70
9764;BME280;4921;43.214;27.936;2024-01-10T11:01:07;102383.53;;;3.23;37.60
9764;BME280;4921;43.214;27.936;2024-01-10T11:03:37;102371.72;;;3.12;37.29
9764;BME280;4921;43.214;27.936;2024-01-10T11:06:04;102378.38;;;3.26;38.42
9764;BME280;4921;43.214;27.936;2024-01-10T11:08:35;102380.34;;;3.04;38.11
9764;BME280;4921;43.214;27.936;2024-01-10T11:11:05;102383.09;;;3.09;38.89
9764;BME280;4921;43.214;27.936;2024-01-10T11:13:56;102368.94;;;3.07;38.95
9764;BME280;4921;43.214;27.936;2024-01-10T11:21:55;102361.94;;;3.16;40.01
9764;BME280;4921;43.214;27.936;2024-01-10T11:24:24;102352.53;;;3.29;38.32
9764;BME280;4921;43.214;27.936;2024-01-10T11:26:50;102353.63;;;3.28;38.50
9764;BME280;4921;43.214;27.936;2024-01-10T11:29:16;102350.56;;;3.19;39.18
9764;BME280;4921;43.214;27.936;2024-01-10T11:31:41;102369.22;;;3.11;38.26
9764;BME280;4921;43.214;27.936;2024-01-10T11:34:15;102352.09;;;3.10;39.07
9764;BME280;4921;43.214;27.936;2024-01-10T11:37:10;102350.28;;;2.89;40.56
9764;BME280;4921;43.214;27.936;2024-01-10T11:39:36;102358.94;;;2.86;40.88
9764;BME280;4921;43.214;27.936;2024-01-10T11:42:03;102355.59;;;2.79;40.54
9764;BME280;4921;43.214;27.936;2024-01-10T11:44:29;102349.72;;;2.87;39.63
9764;BME280;4921;43.214;27.936;2024-01-10T11:46:57;102353.38;;;2.71;40.33
9764;BME280;4921;43.214;27.936;2024-01-10T11:49:23;102348.94;;;2.65;39.78
9764;BME280;4921;43.214;27.936;2024-01-10T11:51:57;102349.84;;;2.76;40.04
9764;BME280;4921;43.214;27.936;2024-01-10T11:54:42;102344.94;;;2.73;39.85
9764;BME280;4921;43.214;27.936;2024-01-10T11:59:35;102338.94;;;2.71;39.61
9764;BME280;4921;43.214;27.936;2024-01-10T12:02:03;102339.09;;;2.59;40.36
9764;BME280;4921;43.214;27.936;2024-01-10T12:04:31;102345.13;;;2.40;40.52
9764;BME280;4921;43.214;27.936;2024-01-10T12:06:57;102343.06;;;2.25;40.73
9764;BME280;4921;43.214;27.936;2024-01-10T12:09:23;102339.34;;;2.31;40.05
9764;BME280;4921;43.214;27.936;2024-01-10T12:11:50;102336.88;;;2.30;40.46
9764;BME280;4921;43.214;27.936;2024-01-10T12:14:15;102339.72;;;2.18;41.00
9764;BME280;4921;43.214;27.936;2024-01-10T12:16:42;102320.38;;;2.14;40.67
9764;BME280;4921;43.214;27.936;2024-01-10T12:19:08;102338.97;;;2.22;41.14
9764;BME280;4921;43.214;27.936;2024-01-10T12:21:33;102329.53;;;2.30;40.00
9764;BME280;4921;43.214;27.936;2024-01-10T12:23:59;102322.56;;;2.39;40.94
9764;BME280;4921;43.214;27.936;2024-01-10T12:26:24;102330.91;;;2.54;40.85
9764;BME280;4921;43.214;27.936;2024-01-10T12:28:54;102329.22;;;2.26;40.84
9764;BME280;4921;43.214;27.936;2024-01-10T12:31:20;102328.25;;;2.38;38.91
9764;BME280;4921;43.214;27.936;2024-01-10T12:33:49;102323.69;;;2.43;37.27
9764;BME280;4921;43.214;27.936;2024-01-10T12:36:17;102331.34;;;2.46;38.72
9764;BME280;4921;43.214;27.936;2024-01-10T12:38:43;102331.91;;;2.48;37.72
9764;BME280;4921;43.214;27.936;2024-01-10T12:41:09;102331.84;;;2.43;37.88
9764;BME280;4921;43.214;27.936;2024-01-10T12:43:35;102332.63;;;2.39;38.82
9764;BME280;4921;43.214;27.936;2024-01-10T12:48:34;102323.19;;;2.46;37.94
9764;BME280;4921;43.214;27.936;2024-01-10T12:51:04;102324.06;;;2.52;37.30
9764;BME280;4921;43.214;27.936;2024-01-10T12:53:38;102312.00;;;2.43;36.80
9764;BME280;4921;43.214;27.936;2024-01-10T12:56:04;102318.38;;;2.53;38.45
9764;BME280;4921;43.214;27.936;2024-01-10T12:58:31;102315.66;;;2.53;38.56
9764;BME280;4921;43.214;27.936;2024-01-10T13:00:57;102316.00;;;2.62;40.04
9764;BME280;4921;43.214;27.936;2024-01-10T13:03:23;102303.19;;;2.57;40.28
9764;BME280;4921;43.214;27.936;2024-01-10T13:05:49;102316.31;;;2.65;38.60
9764;BME280;4921;43.214;27.936;2024-01-10T13:08:15;102308.59;;;2.31;38.39
9764;BME280;4921;43.214;27.936;2024-01-10T13:10:41;102320.59;;;2.56;39.10
9764;BME280;4921;43.214;27.936;2024-01-10T13:13:07;102318.78;;;2.67;39.93